Terminal Aerodrome Forecast
Issued by NWS

Current Version | Previous Version | Text Only | Print | Product List | Glossary Off
Versions: 1 2 3 4 5 6 7 8 9 10 11 12 13 14 15 16 17 18 19 20

000
FTUS41 KILN 241700
TAFLUK
TAF
KLUK 241740Z 2418/2518 06005KT P6SM SCT040 BKN200
     FM250000 08004KT P6SM BKN200
     FM250600 00000KT 3SM BR SCT200
     FM251000 00000KT 1SM BR SCT200
     FM251300 14005KT P6SM SCT060=

USA.gov is the U.S. government's official web portal to all federal, state and local government web resources and services.